Time;durP1;ratioP1;P1;durP2;ratioP2;P2;SDS_P1;SDS_P2;PMS_P1;PMS_P2;Temp;Humidity;BMP_temperature;BMP_pressure;BME280_temperature;BME280_humidity;BME280_pressure;Samples;Min_cycle;Max_cycle;Signal;HPM_P1;HPM_P2
2022/10/16 00:02:27;;;;;;;;;68.60;54.80;;;;;;;;5165057;28;8918;-67
2022/10/16 00:04:59;;;;;;;;;73.60;56.40;;;;;;;;5164879;28;8799;-67
2022/10/16 00:07:29;;;;;;;;;65.25;52.25;;;;;;;;5163758;28;8910;-67
2022/10/16 00:10:01;;;;;;;;;67.20;53.00;;;;;;;;5164485;28;9634;-68
2022/10/16 00:12:33;;;;;;;;;61.40;51.60;;;;;;;;5181410;28;8798;-68
2022/10/16 00:15:05;;;;;;;;;51.80;44.40;;;;;;;;5165414;28;8869;-67
2022/10/16 00:17:36;;;;;;;;;39.60;38.00;;;;;;;;5148732;28;8787;-68
2022/10/16 00:20:07;;;;;;;;;33.60;32.40;;;;;;;;5148184;28;8819;-68
2022/10/16 00:22:57;;;;;;;;;35.60;34.60;;;;;;;;5178286;28;9531;-68
2022/10/16 00:25:57;;;;;;;;;33.20;33.20;;;;;;;;5164233;28;8822;-68
2022/10/16 00:28:28;;;;;;;;;23.00;23.00;;;;;;;;5164492;28;8822;-67
2022/10/16 00:31:02;;;;;;;;;14.20;14.20;;;;;;;;5148629;28;9614;-67
2022/10/16 00:33:34;;;;;;;;;20.20;20.20;;;;;;;;5165574;28;8791;-67
2022/10/16 00:36:24;;;;;;;;;19.00;19.00;;;;;;;;5178132;28;8834;-67
2022/10/16 00:38:57;;;;;;;;;17.80;17.80;;;;;;;;5164545;28;8792;-68
2022/10/16 00:41:28;;;;;;;;;65.20;53.20;;;;;;;;5165400;28;8869;-69
2022/10/16 00:44:00;;;;;;;;;94.60;83.40;;;;;;;;5164170;28;8783;-68
2022/10/16 00:46:37;;;;;;;;;78.20;61.40;;;;;;;;5164385;28;8799;-67
2022/10/16 00:49:10;;;;;;;;;60.80;49.00;;;;;;;;5165381;28;8855;-67
2022/10/16 00:51:42;;;;;;;;;63.40;49.80;;;;;;;;5163767;28;8807;-68
2022/10/16 00:54:15;;;;;;;;;82.20;65.40;;;;;;;;5165023;28;8957;-68
2022/10/16 00:56:46;;;;;;;;;57.60;47.60;;;;;;;;5147896;28;8790;-68
2022/10/16 00:59:43;;;;;;;;;54.60;45.40;;;;;;;;5163364;28;8823;-68
2022/10/16 01:02:16;;;;;;;;;69.20;57.00;;;;;;;;5161988;28;8848;-68
2022/10/16 01:04:49;;;;;;;;;107.00;95.00;;;;;;;;5163599;28;8861;-68
2022/10/16 01:07:30;;;;;;;;;82.40;64.20;;;;;;;;5179902;28;8800;-68
2022/10/16 01:10:10;;;;;;;;;50.40;44.00;;;;;;;;5147746;28;8779;-68
2022/10/16 01:12:56;;;;;;;;;128.25;112.00;;;;;;;;5147265;28;8792;-68
2022/10/16 01:15:34;;;;;;;;;154.00;132.67;;;;;;;;5164615;28;8965;-68
2022/10/16 01:18:39;;;;;;;;;84.60;67.40;;;;;;;;5164468;28;9708;-68
2022/10/16 01:21:17;;;;;;;;;43.40;39.40;;;;;;;;5164489;28;8787;-68
2022/10/16 01:24:26;;;;;;;;;24.00;23.80;;;;;;;;5164225;28;9507;-67
2022/10/16 01:27:30;;;;;;;;;61.20;48.40;;;;;;;;5163631;28;8775;-68
2022/10/16 01:30:10;;;;;;;;;63.80;50.80;;;;;;;;5163550;28;8791;-68
2022/10/16 01:32:44;;;;;;;;;54.00;40.20;;;;;;;;5163328;28;9530;-69
2022/10/16 01:35:21;;;;;;;;;94.20;81.00;;;;;;;;5162953;28;8815;-68
2022/10/16 01:38:22;;;;;;;;;87.40;71.20;;;;;;;;5163725;28;8787;-68
2022/10/16 01:40:57;;;;;;;;;55.40;46.80;;;;;;;;5147410;28;9562;-68
2022/10/16 01:43:33;;;;;;;;;90.20;75.20;;;;;;;;5146951;28;8792;-68
2022/10/16 01:46:05;;;;;;;;;78.20;61.80;;;;;;;;5163059;28;8877;-67
2022/10/16 01:48:38;;;;;;;;;69.40;52.80;;;;;;;;5146807;28;8814;-67
2022/10/16 01:51:11;;;;;;;;;74.00;58.80;;;;;;;;5146658;28;8866;-67
2022/10/16 01:53:46;;;;;;;;;68.40;53.60;;;;;;;;5163050;28;8798;-67
2022/10/16 01:56:17;;;;;;;;;58.80;47.00;;;;;;;;5162976;28;8827;-67
2022/10/16 01:59:01;;;;;;;;;49.00;42.00;;;;;;;;5163253;28;8808;-66
2022/10/16 02:01:35;;;;;;;;;38.20;33.00;;;;;;;;5163100;28;9648;-66
2022/10/16 02:04:15;;;;;;;;;35.20;34.00;;;;;;;;5179348;28;8857;-67
2022/10/16 02:06:46;;;;;;;;;28.60;28.60;;;;;;;;5146744;28;8783;-66
2022/10/16 02:09:17;;;;;;;;;25.60;24.40;;;;;;;;5163049;28;9568;-67
2022/10/16 02:11:50;;;;;;;;;23.40;23.40;;;;;;;;5163652;28;8811;-67
2022/10/16 02:14:24;;;;;;;;;27.00;27.00;;;;;;;;5146654;28;8841;-68
2022/10/16 02:16:55;;;;;;;;;41.40;38.80;;;;;;;;5162497;28;8827;-67
2022/10/16 02:19:26;;;;;;;;;34.40;32.80;;;;;;;;5162533;28;8775;-67
2022/10/16 02:22:00;;;;;;;;;32.80;32.00;;;;;;;;5146554;28;8811;-67
2022/10/16 02:25:02;;;;;;;;;24.40;24.00;;;;;;;;5176461;28;8803;-67
2022/10/16 02:27:34;;;;;;;;;24.00;23.80;;;;;;;;5146601;28;8799;-67
2022/10/16 02:30:08;;;;;;;;;23.80;22.80;;;;;;;;5162852;28;8842;-67
2022/10/16 02:32:43;;;;;;;;;25.80;25.80;;;;;;;;5149605;28;8788;-67
2022/10/16 02:35:17;;;;;;;;;33.60;30.60;;;;;;;;5149938;28;8905;-66
2022/10/16 02:37:49;;;;;;;;;57.00;47.40;;;;;;;;5150317;28;8791;-67
2022/10/16 02:40:21;;;;;;;;;37.20;36.00;;;;;;;;5166332;28;8811;-67
2022/10/16 02:42:53;;;;;;;;;28.00;27.40;;;;;;;;5150121;28;8918;-67
2022/10/16 02:45:24;;;;;;;;;74.80;60.00;;;;;;;;5150174;28;8980;-67
2022/10/16 02:47:55;;;;;;;;;77.00;61.40;;;;;;;;5182549;28;9558;-68
2022/10/16 02:50:27;;;;;;;;;53.80;44.20;;;;;;;;5133455;28;8882;-68
2022/10/16 02:52:58;;;;;;;;;52.60;42.60;;;;;;;;5166798;28;8807;-67
2022/10/16 02:55:29;;;;;;;;;61.00;51.00;;;;;;;;5149871;28;9582;-67
2022/10/16 02:58:01;;;;;;;;;68.40;53.60;;;;;;;;5166297;28;9550;-67
2022/10/16 03:00:32;;;;;;;;;48.80;41.80;;;;;;;;5149861;28;8804;-68
2022/10/16 03:03:03;;;;;;;;;54.00;45.50;;;;;;;;5182373;28;8776;-68
2022/10/16 03:05:34;;;;;;;;;30.80;30.80;;;;;;;;5149982;28;9149;-68
2022/10/16 03:08:05;;;;;;;;;24.60;24.60;;;;;;;;5165580;28;8920;-67
2022/10/16 03:10:36;;;;;;;;;25.20;23.80;;;;;;;;5166735;28;8877;-68
2022/10/16 03:13:07;;;;;;;;;22.00;21.60;;;;;;;;5165922;28;8791;-68
2022/10/16 03:15:56;;;;;;;;;33.80;32.40;;;;;;;;5165398;28;8846;-67
2022/10/16 03:18:27;;;;;;;;;26.00;26.00;;;;;;;;5149622;28;8787;-66
2022/10/16 03:20:58;;;;;;;;;23.00;22.80;;;;;;;;5165905;28;8963;-67
2022/10/16 03:23:29;;;;;;;;;24.80;24.60;;;;;;;;5149516;28;8861;-67
2022/10/16 03:26:00;;;;;;;;;26.60;26.60;;;;;;;;5145489;28;8782;-67
2022/10/16 03:28:49;;;;;;;;;22.40;22.40;;;;;;;;5145757;28;8801;-67
2022/10/16 03:31:38;;;;;;;;;15.80;15.80;;;;;;;;5165896;28;8815;-67
2022/10/16 03:34:09;;;;;;;;;22.75;22.00;;;;;;;;5148891;28;8795;-67
2022/10/16 03:36:40;;;;;;;;;35.40;35.00;;;;;;;;5165371;28;8823;-66
2022/10/16 03:39:11;;;;;;;;;24.80;24.60;;;;;;;;5149095;28;8783;-67
2022/10/16 03:41:42;;;;;;;;;28.00;27.60;;;;;;;;5165408;28;9526;-67
2022/10/16 03:44:14;;;;;;;;;18.80;18.00;;;;;;;;5149178;28;8917;-67
2022/10/16 03:46:45;;;;;;;;;16.00;16.00;;;;;;;;5180665;28;8833;-67
2022/10/16 03:49:16;;;;;;;;;18.00;18.00;;;;;;;;5180450;28;8795;-66
2022/10/16 03:51:48;;;;;;;;;7.00;7.00;;;;;;;;5181433;28;8795;-67
2022/10/16 03:54:19;;;;;;;;;23.20;22.80;;;;;;;;5148974;28;8810;-66
2022/10/16 03:56:51;;;;;;;;;20.40;20.40;;;;;;;;5146548;28;8811;-68
2022/10/16 03:59:22;;;;;;;;;15.60;15.20;;;;;;;;5162935;28;8819;-67
2022/10/16 04:02:12;;;;;;;;;16.00;16.00;;;;;;;;5163308;28;8819;-67
2022/10/16 04:04:43;;;;;;;;;11.40;11.40;;;;;;;;5148079;28;9542;-67
2022/10/16 04:07:14;;;;;;;;;13.80;13.60;;;;;;;;5165409;28;8900;-68
2022/10/16 04:10:04;;;;;;;;;15.00;14.20;;;;;;;;5150767;28;8787;-68
2022/10/16 04:12:35;;;;;;;;;13.80;13.40;;;;;;;;5165748;28;8833;-68
2022/10/16 04:15:06;;;;;;;;;16.60;14.80;;;;;;;;5164361;28;8835;-68
2022/10/16 04:17:37;;;;;;;;;16.20;16.20;;;;;;;;5164428;28;8807;-69
2022/10/16 04:20:09;;;;;;;;;14.80;14.80;;;;;;;;5165681;28;8803;-69
2022/10/16 04:22:40;;;;;;;;;24.60;24.60;;;;;;;;5166043;28;8801;-70
2022/10/16 04:25:11;;;;;;;;;25.60;25.60;;;;;;;;5179826;28;8815;-69
2022/10/16 04:27:43;;;;;;;;;23.20;23.20;;;;;;;;5164469;28;8909;-70
2022/10/16 04:30:33;;;;;;;;;19.80;19.80;;;;;;;;5163606;28;8954;-69
2022/10/16 04:33:04;;;;;;;;;29.20;25.80;;;;;;;;5164106;28;8795;-71
2022/10/16 04:35:36;;;;;;;;;26.00;24.20;;;;;;;;5147713;28;8859;-71
2022/10/16 04:38:08;;;;;;;;;22.60;22.60;;;;;;;;5163950;28;8779;-70
2022/10/16 04:40:39;;;;;;;;;26.20;26.20;;;;;;;;5163760;28;8825;-70
2022/10/16 04:43:10;;;;;;;;;26.00;25.80;;;;;;;;5163746;28;9746;-70
2022/10/16 04:45:41;;;;;;;;;27.00;25.20;;;;;;;;5146461;28;8838;-70
2022/10/16 04:48:12;;;;;;;;;22.40;22.40;;;;;;;;5147507;28;8831;-70
2022/10/16 04:50:44;;;;;;;;;23.60;16.80;;;;;;;;5164269;28;8791;-70
2022/10/16 04:53:15;;;;;;;;;24.60;24.00;;;;;;;;5179883;28;8854;-73
2022/10/16 04:55:47;;;;;;;;;19.20;18.80;;;;;;;;5144367;28;8839;-72
2022/10/16 04:58:18;;;;;;;;;16.20;16.20;;;;;;;;5163707;28;8887;-72
2022/10/16 05:00:49;;;;;;;;;10.40;10.40;;;;;;;;5163270;28;8834;-73
2022/10/16 05:03:20;;;;;;;;;13.80;13.80;;;;;;;;5176069;28;8831;-73
2022/10/16 05:06:09;;;;;;;;;8.40;8.20;;;;;;;;5161785;28;9538;-73
2022/10/16 05:08:41;;;;;;;;;21.40;21.20;;;;;;;;5163003;28;8876;-72
2022/10/16 05:11:12;;;;;;;;;13.20;12.60;;;;;;;;5145778;28;9507;-73
2022/10/16 05:13:43;;;;;;;;;11.00;11.00;;;;;;;;5178252;28;8830;-72
2022/10/16 05:16:14;;;;;;;;;12.80;12.80;;;;;;;;5161432;28;8985;-72
2022/10/16 05:18:45;;;;;;;;;16.20;16.20;;;;;;;;5144964;28;8897;-73
2022/10/16 05:21:16;;;;;;;;;11.40;11.40;;;;;;;;5163032;28;8807;-73
2022/10/16 05:24:05;;;;;;;;;15.80;15.80;;;;;;;;5162366;28;8831;-72
2022/10/16 05:26:37;;;;;;;;;14.20;14.20;;;;;;;;5144950;28;8935;-73
2022/10/16 05:29:09;;;;;;;;;13.00;13.00;;;;;;;;5145710;28;8858;-72
2022/10/16 05:31:40;;;;;;;;;11.60;11.60;;;;;;;;5161602;28;8807;-72
2022/10/16 05:34:30;;;;;;;;;16.60;16.60;;;;;;;;5162471;28;8889;-71
2022/10/16 05:37:00;;;;;;;;;12.50;12.50;;;;;;;;5161294;28;8791;-71
2022/10/16 05:39:32;;;;;;;;;15.20;15.20;;;;;;;;5144183;28;11636;-73
2022/10/16 05:42:03;;;;;;;;;14.60;14.60;;;;;;;;5142986;28;8938;-71
2022/10/16 05:44:34;;;;;;;;;12.80;12.80;;;;;;;;5159885;28;8810;-69
2022/10/16 05:47:06;;;;;;;;;13.00;11.40;;;;;;;;5159002;28;8857;-71
2022/10/16 05:49:37;;;;;;;;;12.00;11.60;;;;;;;;5159774;28;8845;-72
2022/10/16 05:52:08;;;;;;;;;14.20;14.20;;;;;;;;5175623;28;8845;-69
2022/10/16 05:54:40;;;;;;;;;12.40;12.40;;;;;;;;5159490;28;8839;-68
2022/10/16 05:57:11;;;;;;;;;12.20;12.20;;;;;;;;5143462;28;8807;-69
2022/10/16 06:00:00;;;;;;;;;16.20;16.20;;;;;;;;5159307;28;8878;-70
2022/10/16 06:02:32;;;;;;;;;19.20;18.80;;;;;;;;5160180;28;8830;-70
2022/10/16 06:05:03;;;;;;;;;18.80;17.80;;;;;;;;5143587;28;8826;-70
2022/10/16 06:07:35;;;;;;;;;20.80;19.20;;;;;;;;5162482;28;8811;-69
2022/10/16 06:10:25;;;;;;;;;16.60;16.60;;;;;;;;5163019;28;8857;-69
2022/10/16 06:12:56;;;;;;;;;17.20;17.20;;;;;;;;5164785;28;8811;-69
2022/10/16 06:15:46;;;;;;;;;19.20;18.80;;;;;;;;5163119;28;8843;-69
2022/10/16 06:18:17;;;;;;;;;20.40;20.40;;;;;;;;5148617;28;8814;-69
2022/10/16 06:20:48;;;;;;;;;10.20;10.20;;;;;;;;5165062;28;8810;-70
2022/10/16 06:23:20;;;;;;;;;11.75;11.75;;;;;;;;5165330;28;8829;-71
2022/10/16 06:26:10;;;;;;;;;16.80;15.00;;;;;;;;5165307;28;10250;-69
2022/10/16 06:28:41;;;;;;;;;9.50;9.50;;;;;;;;5168057;28;9510;-70
2022/10/16 06:31:13;;;;;;;;;8.20;8.20;;;;;;;;5183041;28;8818;-69
2022/10/16 06:33:45;;;;;;;;;10.00;10.00;;;;;;;;5183407;28;8791;-69
2022/10/16 06:36:17;;;;;;;;;8.40;8.40;;;;;;;;5166714;28;8846;-69
2022/10/16 06:39:07;;;;;;;;;12.00;12.00;;;;;;;;5166697;28;8949;-69
2022/10/16 06:41:38;;;;;;;;;10.00;10.00;;;;;;;;5166450;28;9529;-69
2022/10/16 06:44:19;;;;;;;;;11.40;11.40;;;;;;;;5166679;28;8795;-70
2022/10/16 06:46:51;;;;;;;;;14.00;13.60;;;;;;;;5166448;28;8795;-70
2022/10/16 06:49:22;;;;;;;;;12.80;12.80;;;;;;;;5166369;28;8795;-70
2022/10/16 06:51:53;;;;;;;;;10.20;10.20;;;;;;;;5150209;28;8853;-70
2022/10/16 06:54:24;;;;;;;;;10.75;10.75;;;;;;;;5182563;28;8807;-70
2022/10/16 06:57:14;;;;;;;;;12.60;12.60;;;;;;;;5167499;28;11521;-69
2022/10/16 06:59:45;;;;;;;;;20.60;20.60;;;;;;;;5166198;28;8835;-70
2022/10/16 07:02:16;;;;;;;;;13.20;13.20;;;;;;;;5165899;28;8849;-70
2022/10/16 07:04:47;;;;;;;;;9.50;9.50;;;;;;;;5165991;28;9009;-70
2022/10/16 07:07:18;;;;;;;;;12.40;12.40;;;;;;;;5182617;28;8810;-68
2022/10/16 07:09:49;;;;;;;;;13.20;13.20;;;;;;;;5166297;28;8925;-69
2022/10/16 07:12:20;;;;;;;;;18.20;18.20;;;;;;;;5165999;28;8922;-69
2022/10/16 07:14:52;;;;;;;;;10.00;10.00;;;;;;;;5182050;28;9539;-69
2022/10/16 07:17:23;;;;;;;;;19.00;18.40;;;;;;;;5165640;28;8776;-69
2022/10/16 07:19:55;;;;;;;;;15.00;15.00;;;;;;;;5149630;28;8783;-69
2022/10/16 07:22:28;;;;;;;;;11.40;11.00;;;;;;;;5149682;28;8803;-69
2022/10/16 07:25:17;;;;;;;;;7.25;7.25;;;;;;;;5166849;28;8837;-69
2022/10/16 07:27:48;;;;;;;;;11.60;11.40;;;;;;;;5165586;28;8780;-69
2022/10/16 07:30:19;;;;;;;;;22.20;22.20;;;;;;;;5165490;28;8913;-69
2022/10/16 07:32:50;;;;;;;;;11.00;11.00;;;;;;;;5165679;28;8796;-70
2022/10/16 07:35:50;;;;;;;;;15.40;15.40;;;;;;;;5179334;28;9522;-70
2022/10/16 07:38:21;;;;;;;;;19.00;17.00;;;;;;;;5149745;28;8847;-70
2022/10/16 07:40:57;;;;;;;;;13.00;12.50;;;;;;;;5165347;28;8783;-70
2022/10/16 07:43:29;;;;;;;;;25.00;23.80;;;;;;;;5165384;28;8788;-70
2022/10/16 07:46:19;;;;;;;;;37.60;35.00;;;;;;;;5151493;28;9523;-70
2022/10/16 07:48:50;;;;;;;;;31.20;29.20;;;;;;;;5165505;28;8802;-70
2022/10/16 07:51:40;;;;;;;;;48.20;41.00;;;;;;;;5165257;28;8795;-70
2022/10/16 07:54:11;;;;;;;;;41.20;37.40;;;;;;;;5181271;28;8814;-70
2022/10/16 07:56:42;;;;;;;;;27.40;26.80;;;;;;;;5148794;28;8908;-70
2022/10/16 07:59:13;;;;;;;;;41.00;38.00;;;;;;;;5181614;28;8807;-70
2022/10/16 08:01:44;;;;;;;;;60.80;49.40;;;;;;;;5166544;28;8807;-70
2022/10/16 08:04:15;;;;;;;;;61.50;50.25;;;;;;;;5165067;28;8813;-70
2022/10/16 08:06:46;;;;;;;;;58.60;46.20;;;;;;;;5165744;28;8826;-70
2022/10/16 08:09:35;;;;;;;;;50.80;44.20;;;;;;;;5166207;28;8933;-68
2022/10/16 08:12:07;;;;;;;;;27.50;27.00;;;;;;;;5181040;28;8925;-69
2022/10/16 08:14:38;;;;;;;;;29.20;29.00;;;;;;;;5165910;28;11477;-69
2022/10/16 08:17:27;;;;;;;;;24.60;24.60;;;;;;;;5164581;28;8857;-69
2022/10/16 08:19:58;;;;;;;;;19.25;19.25;;;;;;;;5164683;28;8803;-69
2022/10/16 08:22:29;;;;;;;;;15.67;15.67;;;;;;;;5164371;28;11598;-69
2022/10/16 08:25:00;;;;;;;;;13.50;13.50;;;;;;;;5164639;28;10439;-69
2022/10/16 08:27:32;;;;;;;;;20.60;20.60;;;;;;;;5164443;28;8869;-69
2022/10/16 08:30:03;;;;;;;;;18.50;18.50;;;;;;;;5179902;28;8865;-69
2022/10/16 08:32:34;;;;;;;;;21.20;21.20;;;;;;;;5165742;28;9617;-70
2022/10/16 08:35:05;;;;;;;;;23.00;23.00;;;;;;;;5164219;28;8873;-70
2022/10/16 08:37:36;;;;;;;;;21.80;21.80;;;;;;;;5164433;28;8805;-69
2022/10/16 08:40:15;;;;;;;;;21.80;21.80;;;;;;;;5147820;28;8908;-69
2022/10/16 08:43:20;;;;;;;;;18.00;18.00;;;;;;;;5151043;28;8806;-70
2022/10/16 08:46:09;;;;;;;;;22.80;22.80;;;;;;;;5164422;28;8811;-70
2022/10/16 08:48:40;;;;;;;;;29.00;29.00;;;;;;;;5147862;28;8826;-70
2022/10/16 08:51:14;;;;;;;;;48.60;40.80;;;;;;;;5147802;28;8815;-70
2022/10/16 08:53:48;;;;;;;;;33.20;32.80;;;;;;;;5147916;28;8837;-70
2022/10/16 08:56:19;;;;;;;;;30.40;29.40;;;;;;;;5147821;28;8934;-70
2022/10/16 08:58:51;;;;;;;;;26.60;26.60;;;;;;;;5180444;28;9600;-69
2022/10/16 09:01:24;;;;;;;;;34.20;33.40;;;;;;;;5179862;28;8892;-69
2022/10/16 09:04:04;;;;;;;;;33.40;32.60;;;;;;;;5163894;28;9491;-68
2022/10/16 09:06:52;;;;;;;;;32.60;32.60;;;;;;;;5147800;28;8865;-68
2022/10/16 09:09:34;;;;;;;;;28.20;27.20;;;;;;;;5147533;28;8819;-70
2022/10/16 09:12:12;;;;;;;;;38.40;35.60;;;;;;;;5163507;28;8809;-70
2022/10/16 09:15:17;;;;;;;;;34.40;33.40;;;;;;;;5164625;28;8870;-70
2022/10/16 09:17:48;;;;;;;;;24.80;23.40;;;;;;;;5157413;28;8831;-72
2022/10/16 09:20:26;;;;;;;;;30.40;29.80;;;;;;;;5146874;28;8838;-70
2022/10/16 09:23:10;;;;;;;;;63.40;51.20;;;;;;;;5147157;28;8891;-72
2022/10/16 09:25:43;;;;;;;;;62.40;49.40;;;;;;;;5153293;28;8914;-72
2022/10/16 09:28:15;;;;;;;;;51.00;44.00;;;;;;;;5161022;28;8850;-72
2022/10/16 09:30:49;;;;;;;;;36.00;34.80;;;;;;;;5161667;28;8835;-73
2022/10/16 09:33:29;;;;;;;;;57.80;48.00;;;;;;;;5161362;28;9634;-74
2022/10/16 09:36:02;;;;;;;;;44.20;39.00;;;;;;;;5175439;28;8838;-73
2022/10/16 09:39:01;;;;;;;;;38.60;35.60;;;;;;;;5161314;28;8787;-77
2022/10/16 09:41:34;;;;;;;;;33.60;32.20;;;;;;;;5154413;28;8835;-72
2022/10/16 09:44:15;;;;;;;;;37.40;34.60;;;;;;;;5162339;28;8830;-70
2022/10/16 09:46:46;;;;;;;;;24.60;23.40;;;;;;;;5162397;28;8819;-71
2022/10/16 09:49:24;;;;;;;;;31.75;31.75;;;;;;;;5144431;28;8892;-70
2022/10/16 09:52:05;;;;;;;;;45.20;40.00;;;;;;;;5160557;28;8860;-71
2022/10/16 09:54:36;;;;;;;;;56.60;46.00;;;;;;;;5140966;28;8864;-70
2022/10/16 09:57:12;;;;;;;;;39.60;35.80;;;;;;;;5157349;28;8810;-71
2022/10/16 09:59:48;;;;;;;;;29.80;29.00;;;;;;;;5157063;28;8820;-72
2022/10/16 10:02:30;;;;;;;;;35.80;31.40;;;;;;;;5140995;28;8928;-72
2022/10/16 10:05:01;;;;;;;;;28.00;27.60;;;;;;;;5159193;28;8807;-71
2022/10/16 10:07:58;;;;;;;;;34.60;33.20;;;;;;;;5162204;28;8791;-70
2022/10/16 10:10:30;;;;;;;;;26.80;26.80;;;;;;;;5160885;28;8805;-70
2022/10/16 10:13:21;;;;;;;;;24.00;23.80;;;;;;;;5161248;28;8861;-71
2022/10/16 10:15:53;;;;;;;;;32.80;30.60;;;;;;;;5161423;28;9550;-71
2022/10/16 10:18:42;;;;;;;;;31.80;31.00;;;;;;;;5155470;28;8826;-70
2022/10/16 10:21:15;;;;;;;;;49.25;42.25;;;;;;;;5161619;28;9506;-72
2022/10/16 10:24:04;;;;;;;;;40.20;36.60;;;;;;;;5159194;28;9585;-72
2022/10/16 10:26:37;;;;;;;;;37.20;33.80;;;;;;;;5161348;28;8803;-70
2022/10/16 10:29:18;;;;;;;;;41.60;36.00;;;;;;;;5161888;28;8884;-70
2022/10/16 10:31:56;;;;;;;;;36.60;33.60;;;;;;;;5162186;28;8779;-71
2022/10/16 10:34:47;;;;;;;;;43.60;37.80;;;;;;;;5160386;28;8974;-71
2022/10/16 10:37:47;;;;;;;;;32.00;31.80;;;;;;;;5111995;28;10081;-73
2022/10/16 10:40:37;;;;;;;;;33.00;32.40;;;;;;;;5142967;28;9588;-73
2022/10/16 10:43:24;;;;;;;;;38.20;35.00;;;;;;;;5161891;28;8791;-72
2022/10/16 10:46:00;;;;;;;;;47.80;40.40;;;;;;;;5159561;28;8807;-73
2022/10/16 10:48:47;;;;;;;;;30.80;29.60;;;;;;;;5158977;28;8806;-72
2022/10/16 10:51:18;;;;;;;;;40.80;36.40;;;;;;;;5163223;28;8829;-70
2022/10/16 10:54:07;;;;;;;;;48.25;40.50;;;;;;;;5166253;28;8815;-71
2022/10/16 10:56:44;;;;;;;;;33.40;31.60;;;;;;;;5167717;28;8833;-70
2022/10/16 10:59:28;;;;;;;;;26.00;25.80;;;;;;;;5149577;28;8852;-71
2022/10/16 11:02:05;;;;;;;;;28.20;27.40;;;;;;;;5165561;28;8834;-71
2022/10/16 11:04:36;;;;;;;;;33.80;32.60;;;;;;;;5166046;28;8810;-71
2022/10/16 11:07:15;;;;;;;;;30.20;30.00;;;;;;;;5165865;28;8964;-71
2022/10/16 11:10:06;;;;;;;;;27.80;27.20;;;;;;;;5166385;28;9354;-71
2022/10/16 11:12:42;;;;;;;;;25.40;25.00;;;;;;;;5136465;28;8902;-72
2022/10/16 11:15:28;;;;;;;;;28.40;28.00;;;;;;;;5156514;28;8851;-70
2022/10/16 11:17:58;;;;;;;;;27.20;27.20;;;;;;;;5159986;28;8835;-71
2022/10/16 11:20:51;;;;;;;;;23.80;23.80;;;;;;;;5165833;28;8810;-71
2022/10/16 11:23:30;;;;;;;;;30.20;30.20;;;;;;;;5166857;28;9538;-70
2022/10/16 11:26:06;;;;;;;;;38.00;34.60;;;;;;;;5165566;28;8866;-70
2022/10/16 11:28:45;;;;;;;;;24.60;24.60;;;;;;;;5165653;28;8823;-70
2022/10/16 11:31:28;;;;;;;;;24.00;22.25;;;;;;;;5181745;28;8799;-71
2022/10/16 11:34:15;;;;;;;;;22.50;21.75;;;;;;;;5165261;28;9538;-68
2022/10/16 11:36:46;;;;;;;;;29.20;27.60;;;;;;;;5166196;28;8831;-70
2022/10/16 11:39:38;;;;;;;;;17.80;17.20;;;;;;;;5165949;28;8829;-72
2022/10/16 11:42:16;;;;;;;;;31.20;29.80;;;;;;;;5166892;28;8783;-70
2022/10/16 11:44:47;;;;;;;;;25.20;24.20;;;;;;;;5166679;28;8807;-69
2022/10/16 11:47:35;;;;;;;;;24.25;23.50;;;;;;;;5148766;28;8830;-69
2022/10/16 11:50:35;;;;;;;;;17.50;17.50;;;;;;;;5165385;28;9606;-69
2022/10/16 11:53:43;;;;;;;;;22.50;21.75;;;;;;;;5156174;28;8933;-70
2022/10/16 11:56:37;;;;;;;;;20.60;20.60;;;;;;;;5165219;28;8822;-72
2022/10/16 11:59:17;;;;;;;;;14.75;14.75;;;;;;;;5181278;28;8827;-71
2022/10/16 12:01:52;;;;;;;;;6.00;6.00;;;;;;;;5164993;28;8823;-70
2022/10/16 12:04:33;;;;;;;;;15.40;15.00;;;;;;;;5163452;28;9530;-71
2022/10/16 12:07:08;;;;;;;;;23.00;23.00;;;;;;;;5166243;28;8803;-69
2022/10/16 12:09:40;;;;;;;;;22.40;22.40;;;;;;;;5164826;28;8804;-69
2022/10/16 12:12:32;;;;;;;;;37.40;34.00;;;;;;;;5166331;28;8799;-70
2022/10/16 12:15:18;;;;;;;;;28.80;28.60;;;;;;;;5165470;28;8819;-70
2022/10/16 12:17:50;;;;;;;;;27.40;27.40;;;;;;;;5164645;28;8815;-69
2022/10/16 12:20:36;;;;;;;;;25.00;24.80;;;;;;;;5180886;28;8799;-70
2022/10/16 12:23:07;;;;;;;;;29.80;28.40;;;;;;;;5164386;28;8826;-70
2022/10/16 12:25:46;;;;;;;;;23.40;23.40;;;;;;;;5163775;28;8839;-70
2022/10/16 12:28:36;;;;;;;;;44.40;38.80;;;;;;;;5164349;28;8823;-69
2022/10/16 12:31:09;;;;;;;;;48.60;41.20;;;;;;;;5148143;28;8819;-69
2022/10/16 12:33:41;;;;;;;;;36.00;34.00;;;;;;;;5164626;28;8834;-70
2022/10/16 12:36:14;;;;;;;;;39.00;36.00;;;;;;;;5164087;28;8831;-69
2022/10/16 12:38:45;;;;;;;;;29.40;29.40;;;;;;;;5148271;28;9542;-69
2022/10/16 12:41:27;;;;;;;;;26.00;25.00;;;;;;;;5180015;28;8806;-69
2022/10/16 12:44:01;;;;;;;;;26.40;26.00;;;;;;;;5163927;28;8803;-69
2022/10/16 12:46:50;;;;;;;;;21.60;21.60;;;;;;;;5175745;28;8803;-68
2022/10/16 12:49:21;;;;;;;;;21.60;21.40;;;;;;;;5163008;28;8828;-69
2022/10/16 12:51:52;;;;;;;;;19.00;18.00;;;;;;;;5163824;28;8772;-69
2022/10/16 12:54:42;;;;;;;;;16.00;16.00;;;;;;;;5164861;28;11268;-69
2022/10/16 12:57:34;;;;;;;;;29.60;29.40;;;;;;;;5164266;28;8787;-70
2022/10/16 13:00:25;;;;;;;;;21.60;21.40;;;;;;;;5147283;28;8846;-68
2022/10/16 13:03:02;;;;;;;;;23.00;23.00;;;;;;;;5164259;28;8914;-68
2022/10/16 13:05:33;;;;;;;;;26.20;24.20;;;;;;;;5163170;28;9609;-68
2022/10/16 13:08:19;;;;;;;;;23.25;23.25;;;;;;;;5162923;28;8799;-68
2022/10/16 13:11:09;;;;;;;;;35.00;33.40;;;;;;;;5162954;28;8934;-70
2022/10/16 13:13:59;;;;;;;;;18.20;17.80;;;;;;;;5159237;28;8795;-69
2022/10/16 13:16:39;;;;;;;;;15.80;15.80;;;;;;;;5164053;28;8831;-70
2022/10/16 13:19:22;;;;;;;;;19.00;19.00;;;;;;;;5126969;28;8936;-69
2022/10/16 13:22:03;;;;;;;;;17.60;16.00;;;;;;;;5159334;28;8871;-68
2022/10/16 13:24:40;;;;;;;;;48.60;41.20;;;;;;;;5144230;28;8782;-70
2022/10/16 13:27:29;;;;;;;;;18.60;18.60;;;;;;;;5159855;28;8809;-69
2022/10/16 13:30:02;;;;;;;;;16.80;16.80;;;;;;;;5159366;28;8790;-69
2022/10/16 13:32:34;;;;;;;;;14.00;14.00;;;;;;;;5163401;28;8819;-69
2022/10/16 13:35:18;;;;;;;;;17.75;17.75;;;;;;;;5146649;28;8827;-70
2022/10/16 13:37:49;;;;;;;;;18.00;17.60;;;;;;;;5163070;28;8829;-70
2022/10/16 13:40:24;;;;;;;;;19.60;19.60;;;;;;;;5163565;28;8808;-71
2022/10/16 13:43:13;;;;;;;;;19.60;19.20;;;;;;;;5163333;28;8775;-70
2022/10/16 13:45:55;;;;;;;;;15.25;15.25;;;;;;;;5162982;28;8869;-70
2022/10/16 13:48:26;;;;;;;;;16.60;16.60;;;;;;;;5178929;28;11563;-69
2022/10/16 13:51:11;;;;;;;;;16.60;15.60;;;;;;;;5146455;28;8807;-70
2022/10/16 13:53:43;;;;;;;;;21.80;21.20;;;;;;;;5179226;28;8871;-71
2022/10/16 13:56:15;;;;;;;;;16.40;16.40;;;;;;;;5159424;28;8831;-70
2022/10/16 13:58:57;;;;;;;;;17.00;16.20;;;;;;;;5145306;28;9515;-69
2022/10/16 14:01:30;;;;;;;;;16.00;16.00;;;;;;;;5162213;28;8981;-69
2022/10/16 14:04:20;;;;;;;;;23.40;23.00;;;;;;;;5174839;28;8885;-71
2022/10/16 14:06:51;;;;;;;;;23.20;23.20;;;;;;;;5160373;28;8795;-71
2022/10/16 14:09:24;;;;;;;;;14.20;14.20;;;;;;;;5144603;28;9671;-69
2022/10/16 14:11:58;;;;;;;;;67.40;53.80;;;;;;;;5160483;28;8807;-69
2022/10/16 14:14:40;;;;;;;;;23.40;23.20;;;;;;;;5162098;28;8805;-69
2022/10/16 14:17:23;;;;;;;;;21.00;20.80;;;;;;;;5144904;28;8831;-71
2022/10/16 14:19:55;;;;;;;;;16.75;16.00;;;;;;;;5177048;28;8833;-72
2022/10/16 14:22:32;;;;;;;;;15.00;14.60;;;;;;;;5160939;28;8925;-71
2022/10/16 14:25:23;;;;;;;;;13.00;13.00;;;;;;;;5160618;28;8799;-73
2022/10/16 14:27:58;;;;;;;;;20.75;20.50;;;;;;;;5179933;28;8922;-72
2022/10/16 14:30:58;;;;;;;;;15.50;15.50;;;;;;;;5165242;28;8846;-70
2022/10/16 14:33:47;;;;;;;;;15.40;15.20;;;;;;;;5164783;28;8900;-71
2022/10/16 14:36:20;;;;;;;;;13.50;13.00;;;;;;;;5165898;28;8969;-71
2022/10/16 14:39:01;;;;;;;;;12.20;12.20;;;;;;;;5147581;28;12261;-72
2022/10/16 14:41:40;;;;;;;;;14.00;13.75;;;;;;;;5164996;28;9515;-70
2022/10/16 14:44:12;;;;;;;;;12.80;12.80;;;;;;;;5147717;28;8850;-69
2022/10/16 14:46:44;;;;;;;;;16.60;16.20;;;;;;;;5163362;28;8815;-70
2022/10/16 14:49:18;;;;;;;;;16.80;16.40;;;;;;;;5164440;28;8815;-70
2022/10/16 14:51:49;;;;;;;;;17.60;17.20;;;;;;;;5145745;28;8802;-70
2022/10/16 14:54:20;;;;;;;;;18.80;18.60;;;;;;;;5162463;28;8798;-70
2022/10/16 14:56:58;;;;;;;;;19.25;19.25;;;;;;;;5153069;28;8811;-70
2022/10/16 14:59:35;;;;;;;;;26.00;26.00;;;;;;;;5163416;28;10471;-68
2022/10/16 15:02:18;;;;;;;;;22.80;22.20;;;;;;;;5150093;28;8861;-69
2022/10/16 15:04:49;;;;;;;;;28.60;27.80;;;;;;;;5165971;28;8799;-69
2022/10/16 15:07:20;;;;;;;;;24.20;23.80;;;;;;;;5166032;28;8798;-69
2022/10/16 15:09:51;;;;;;;;;29.80;29.80;;;;;;;;5164861;28;8848;-70
2022/10/16 15:12:22;;;;;;;;;34.00;32.60;;;;;;;;5149508;28;8792;-69
2022/10/16 15:14:53;;;;;;;;;23.25;22.00;;;;;;;;5165913;28;8861;-71
2022/10/16 15:17:24;;;;;;;;;17.25;16.50;;;;;;;;5165787;28;10554;-69
2022/10/16 15:19:55;;;;;;;;;29.75;27.50;;;;;;;;5182247;28;8796;-69
2022/10/16 15:22:26;;;;;;;;;25.00;25.00;;;;;;;;5166527;28;11532;-68
2022/10/16 15:24:57;;;;;;;;;27.75;26.50;;;;;;;;5144984;28;8946;-68
2022/10/16 15:27:28;;;;;;;;;69.80;52.00;;;;;;;;5180141;28;9601;-70
2022/10/16 15:29:59;;;;;;;;;90.40;77.00;;;;;;;;5179604;28;8821;-69